sensor_id;sensor_type;location;lat;lon;timestamp;pressure;altitude;pressure_sealevel;temperature;humidity
68199;BME280;55021;51.554;17.044;2023-05-19T00:14:51;101666.75;;;9.91;75.57
68199;BME280;55021;51.554;17.044;2023-05-19T00:30:01;101688.47;;;9.78;76.64
68199;BME280;55021;51.554;17.044;2023-05-19T00:45:04;101670.91;;;9.83;76.08
68199;BME280;55021;51.554;17.044;2023-05-19T01:16:21;101699.72;;;9.61;75.88
68199;BME280;55021;51.554;17.044;2023-05-19T01:31:45;101707.03;;;9.48;78.39
68199;BME280;55021;51.554;17.044;2023-05-19T01:47:50;101703.00;;;9.88;76.15
68199;BME280;55021;51.554;17.044;2023-05-19T02:30:08;101644.09;;;8.76;80.74
68199;BME280;55021;51.554;17.044;2023-05-19T02:45:11;101628.75;;;9.00;78.10
68199;BME280;55021;51.554;17.044;2023-05-19T03:00:15;101575.78;;;8.03;81.98
68199;BME280;55021;51.554;17.044;2023-05-19T03:15:18;101664.00;;;8.62;83.46
68199;BME280;55021;51.554;17.044;2023-05-19T03:30:20;101639.06;;;9.65;77.06
68199;BME280;55021;51.554;17.044;2023-05-19T03:45:29;101625.97;;;9.94;76.78
68199;BME280;55021;51.554;17.044;2023-05-19T04:00:34;101584.91;;;9.77;78.95
68199;BME280;55021;51.554;17.044;2023-05-19T04:15:37;101587.00;;;10.40;75.41
68199;BME280;55021;51.554;17.044;2023-05-19T04:30:39;101580.28;;;11.51;72.57
68199;BME280;55021;51.554;17.044;2023-05-19T04:45:42;101642.94;;;12.50;70.48
68199;BME280;55021;51.554;17.044;2023-05-19T05:00:45;101693.19;;;13.43;70.03
68199;BME280;55021;51.554;17.044;2023-05-19T05:15:48;101635.03;;;13.92;67.51
68199;BME280;55021;51.554;17.044;2023-05-19T05:30:51;101679.34;;;14.95;65.13
68199;BME280;55021;51.554;17.044;2023-05-19T05:45:56;101676.19;;;15.17;63.17
68199;BME280;55021;51.554;17.044;2023-05-19T06:01:14;101691.97;;;15.13;65.94
68199;BME280;55021;51.554;17.044;2023-05-19T06:16:26;101677.16;;;15.79;61.30
68199;BME280;55021;51.554;17.044;2023-05-19T06:31:34;101697.06;;;16.48;58.54
68199;BME280;55021;51.554;17.044;2023-05-19T06:46:37;101677.44;;;15.76;60.33
68199;BME280;55021;51.554;17.044;2023-05-19T07:01:46;101651.91;;;16.96;56.71
68199;BME280;55021;51.554;17.044;2023-05-19T07:16:50;101668.63;;;16.25;57.03
68199;BME280;55021;51.554;17.044;2023-05-19T07:32:12;101705.03;;;15.72;59.03
68199;BME280;55021;51.554;17.044;2023-05-19T07:47:15;101684.41;;;16.73;57.97
68199;BME280;55021;51.554;17.044;2023-05-19T08:02:17;101652.50;;;15.70;57.74
68199;BME280;55021;51.554;17.044;2023-05-19T08:17:20;101687.41;;;16.62;56.43
68199;BME280;55021;51.554;17.044;2023-05-19T08:32:27;101592.66;;;15.51;58.56
68199;BME280;55021;51.554;17.044;2023-05-19T08:47:31;101689.91;;;16.47;58.17
68199;BME280;55021;51.554;17.044;2023-05-19T09:02:54;101694.91;;;16.00;58.98
68199;BME280;55021;51.554;17.044;2023-05-19T09:33:28;101690.69;;;16.91;56.98
68199;BME280;55021;51.554;17.044;2023-05-19T09:48:34;101683.69;;;17.95;54.24
68199;BME280;55021;51.554;17.044;2023-05-19T10:03:40;101664.09;;;18.38;53.82
68199;BME280;55021;51.554;17.044;2023-05-19T10:18:44;101680.16;;;16.78;60.31
68199;BME280;55021;51.554;17.044;2023-05-19T10:34:13;101640.88;;;16.79;59.38
68199;BME280;55021;51.554;17.044;2023-05-19T10:49:29;101607.53;;;17.50;54.88
68199;BME280;55021;51.554;17.044;2023-05-19T11:04:56;101646.50;;;17.28;56.64
68199;BME280;55021;51.554;17.044;2023-05-19T11:20:37;101636.63;;;18.62;55.25
68199;BME280;55021;51.554;17.044;2023-05-19T11:35:50;101635.56;;;17.60;57.06
68199;BME280;55021;51.554;17.044;2023-05-19T11:51:05;101642.56;;;17.79;57.83
68199;BME280;55021;51.554;17.044;2023-05-19T12:06:09;101653.47;;;17.06;57.74
68199;BME280;55021;51.554;17.044;2023-05-19T12:21:36;101635.53;;;18.25;57.27
68199;BME280;55021;51.554;17.044;2023-05-19T12:36:41;101639.13;;;18.80;54.28
68199;BME280;55021;51.554;17.044;2023-05-19T13:07:26;101615.69;;;16.94;57.53
68199;BME280;55021;51.554;17.044;2023-05-19T13:22:29;101636.44;;;17.44;59.31
68199;BME280;55021;51.554;17.044;2023-05-19T13:53:27;101619.09;;;17.04;59.83
68199;BME280;55021;51.554;17.044;2023-05-19T14:08:32;101618.13;;;17.45;57.32
68199;BME280;55021;51.554;17.044;2023-05-19T14:23:35;101627.88;;;17.47;59.24
68199;BME280;55021;51.554;17.044;2023-05-19T14:38:54;101613.66;;;17.12;59.42
68199;BME280;55021;51.554;17.044;2023-05-19T14:54:01;101611.88;;;16.45;60.63
68199;BME280;55021;51.554;17.044;2023-05-19T15:09:22;101641.22;;;16.09;62.10
68199;BME280;55021;51.554;17.044;2023-05-19T15:24:33;101622.44;;;15.62;63.52
68199;BME280;55021;51.554;17.044;2023-05-19T15:40:04;101625.13;;;16.31;62.02
68199;BME280;55021;51.554;17.044;2023-05-19T15:55:19;101597.47;;;16.76;61.87
68199;BME280;55021;51.554;17.044;2023-05-19T16:10:25;101603.69;;;15.85;64.66
68199;BME280;55021;51.554;17.044;2023-05-19T16:25:28;101608.59;;;15.64;65.32
68199;BME280;55021;51.554;17.044;2023-05-19T16:40:34;101584.97;;;16.66;62.93
68199;BME280;55021;51.554;17.044;2023-05-19T16:55:37;101554.72;;;15.66;64.82
68199;BME280;55021;51.554;17.044;2023-05-19T17:10:41;101561.50;;;16.05;64.63
68199;BME280;55021;51.554;17.044;2023-05-19T17:26:08;101533.81;;;15.05;66.06
68199;BME280;55021;51.554;17.044;2023-05-19T17:41:10;101630.38;;;15.38;67.13
68199;BME280;55021;51.554;17.044;2023-05-19T17:56:14;101634.06;;;15.29;68.01
68199;BME280;55021;51.554;17.044;2023-05-19T18:11:17;101623.00;;;15.74;66.05
68199;BME280;55021;51.554;17.044;2023-05-19T18:26:24;101609.09;;;15.59;66.73
68199;BME280;55021;51.554;17.044;2023-05-19T18:41:27;101621.75;;;15.68;66.27
68199;BME280;55021;51.554;17.044;2023-05-19T19:11:56;101627.56;;;15.30;68.28
68199;BME280;55021;51.554;17.044;2023-05-19T19:26:58;101640.59;;;15.54;67.94
68199;BME280;55021;51.554;17.044;2023-05-19T19:42:01;101652.44;;;15.62;68.41
68199;BME280;55021;51.554;17.044;2023-05-19T19:57:04;101648.16;;;15.60;68.02
68199;BME280;55021;51.554;17.044;2023-05-19T20:12:16;101646.97;;;15.62;68.50
68199;BME280;55021;51.554;17.044;2023-05-19T20:27:19;101662.78;;;15.41;69.04
68199;BME280;55021;51.554;17.044;2023-05-19T20:42:21;101665.81;;;15.38;69.11
68199;BME280;55021;51.554;17.044;2023-05-19T20:57:23;101666.16;;;15.35;69.86
68199;BME280;55021;51.554;17.044;2023-05-19T21:12:26;101673.31;;;15.19;70.49
68199;BME280;55021;51.554;17.044;2023-05-19T21:27:30;101669.78;;;15.44;69.94
68199;BME280;55021;51.554;17.044;2023-05-19T21:42:32;101674.94;;;15.11;70.78
68199;BME280;55021;51.554;17.044;2023-05-19T21:57:35;101658.97;;;15.17;70.85
68199;BME280;55021;51.554;17.044;2023-05-19T22:12:38;101672.41;;;15.00;71.84
68199;BME280;55021;51.554;17.044;2023-05-19T22:27:42;101643.69;;;14.88;72.13
68199;BME280;55021;51.554;17.044;2023-05-19T22:42:45;101631.25;;;14.12;76.32
68199;BME280;55021;51.554;17.044;2023-05-19T22:57:47;101634.38;;;14.17;76.57
68199;BME280;55021;51.554;17.044;2023-05-19T23:12:50;101649.69;;;14.28;76.92
68199;BME280;55021;51.554;17.044;2023-05-19T23:27:53;101646.13;;;14.64;75.44
68199;BME280;55021;51.554;17.044;2023-05-19T23:42:55;101629.03;;;14.89;73.69
68199;BME280;55021;51.554;17.044;2023-05-19T23:57:57;101588.44;;;14.86;73.86
